Time;durP1;ratioP1;P1;durP2;ratioP2;P2;SDS_P1;SDS_P2;PMS_P1;PMS_P2;Temp;Humidity;BMP_temperature;BMP_pressure;BME280_temperature;BME280_humidity;BME280_pressure;Samples;Min_cycle;Max_cycle;Signal;HPM_P1;HPM_P2
2021/06/10 00:02:19;;;;;;;3.63;0.80;;;;;;;;;;5100532;28;20032;-93
2021/06/10 00:04:45;;;;;;;3.15;0.65;;;;;;;;;;5100451;28;20030;-90
2021/06/10 00:07:15;;;;;;;5.47;1.33;;;;;;;;;;5099691;28;20111;-92
2021/06/10 00:09:41;;;;;;;10.75;1.35;;;;;;;;;;5099665;28;20028;-90
2021/06/10 00:12:08;;;;;;;1.58;0.77;;;;;;;;;;5100274;28;20464;-92
2021/06/10 00:14:35;;;;;;;1.67;0.70;;;;;;;;;;5100208;28;20022;-91
2021/06/10 00:17:01;;;;;;;1.77;0.90;;;;;;;;;;5118334;28;20023;-90
2021/06/10 00:19:28;;;;;;;4.03;0.80;;;;;;;;;;5100833;28;20043;-90
2021/06/10 00:21:54;;;;;;;2.22;0.80;;;;;;;;;;5100139;28;20034;-91
2021/06/10 00:24:20;;;;;;;6.35;0.82;;;;;;;;;;5117926;28;20023;-90
2021/06/10 00:26:47;;;;;;;1.30;0.65;;;;;;;;;;5099927;28;20031;-92
2021/06/10 00:29:13;;;;;;;1.77;0.77;;;;;;;;;;5099586;28;20081;-90
2021/06/10 00:31:39;;;;;;;2.55;0.73;;;;;;;;;;5099689;28;20028;-91
2021/06/10 00:34:05;;;;;;;1.55;0.70;;;;;;;;;;5099639;28;20031;-92
2021/06/10 00:36:32;;;;;;;1.85;0.82;;;;;;;;;;5099398;28;20028;-90
2021/06/10 00:38:58;;;;;;;1.10;0.50;;;;;;;;;;5099487;28;20031;-92
2021/06/10 00:41:25;;;;;;;1.38;0.70;;;;;;;;;;5099479;28;20048;-93
2021/06/10 00:43:51;;;;;;;2.10;0.82;;;;;;;;;;5099858;28;20028;-91
2021/06/10 00:46:17;;;;;;;2.67;0.90;;;;;;;;;;5099553;28;20020;-90
2021/06/10 00:48:43;;;;;;;2.65;0.88;;;;;;;;;;5099320;28;20043;-92
2021/06/10 00:51:10;;;;;;;2.55;0.90;;;;;;;;;;5098818;28;20464;-90
2021/06/10 00:53:37;;;;;;;4.78;1.17;;;;;;;;;;5098933;28;20038;-91
2021/06/10 00:56:07;;;;;;;2.17;0.90;;;;;;;;;;5099373;28;20396;-90
2021/06/10 00:58:34;;;;;;;3.10;0.80;;;;;;;;;;5099260;28;20065;-91
2021/06/10 01:01:01;;;;;;;2.55;0.80;;;;;;;;;;5099428;28;20058;-91
2021/06/10 01:03:28;;;;;;;2.03;0.75;;;;;;;;;;5099035;28;20081;-91
2021/06/10 01:05:57;;;;;;;7.88;1.05;;;;;;;;;;5099150;28;20020;-92
2021/06/10 01:08:29;;;;;;;5.55;1.10;;;;;;;;;;5098779;28;20460;-90
2021/06/10 01:11:25;;;;;;;4.88;0.98;;;;;;;;;;5098545;28;20440;-91
2021/06/10 01:14:11;;;;;;;1.85;0.90;;;;;;;;;;5095292;28;20532;-90
2021/06/10 01:16:39;;;;;;;3.15;0.90;;;;;;;;;;5098466;28;20031;-90
2021/06/10 01:19:11;;;;;;;1.38;0.80;;;;;;;;;;5098818;28;20456;-93
2021/06/10 01:21:37;;;;;;;1.52;0.80;;;;;;;;;;5097620;28;20392;-92
2021/06/10 01:24:33;;;;;;;2.10;0.90;;;;;;;;;;5098356;28;20031;-91
2021/06/10 01:27:03;;;;;;;1.75;0.88;;;;;;;;;;5010497;28;20030;-88
2021/06/10 01:29:30;;;;;;;2.78;1.20;;;;;;;;;;5097816;28;20024;-93
2021/06/10 01:31:57;;;;;;;4.07;1.42;;;;;;;;;;5098665;28;20032;-88
2021/06/10 01:34:24;;;;;;;7.07;1.73;;;;;;;;;;5098590;28;20543;-90
2021/06/10 01:36:52;;;;;;;5.10;1.45;;;;;;;;;;5099479;28;20072;-89
2021/06/10 01:39:20;;;;;;;5.13;1.50;;;;;;;;;;5097571;28;20027;-89
2021/06/10 01:41:47;;;;;;;2.70;1.10;;;;;;;;;;5098236;28;20165;-92
2021/06/10 01:44:14;;;;;;;2.28;1.23;;;;;;;;;;5097730;28;20061;-90
2021/06/10 01:46:41;;;;;;;2.72;0.90;;;;;;;;;;5098782;28;20027;-90
2021/06/10 01:49:11;;;;;;;4.50;1.35;;;;;;;;;;5097953;28;20023;-88
2021/06/10 01:51:37;;;;;;;3.17;0.90;;;;;;;;;;5098485;28;20023;-89
2021/06/10 01:54:05;;;;;;;1.65;0.70;;;;;;;;;;5098036;28;20028;-93
2021/06/10 01:56:32;;;;;;;3.25;1.17;;;;;;;;;;5098418;28;20091;-91
2021/06/10 01:58:59;;;;;;;3.83;0.88;;;;;;;;;;5116904;28;20142;-90
2021/06/10 02:01:26;;;;;;;7.97;1.10;;;;;;;;;;5097348;28;20024;-90
2021/06/10 02:03:54;;;;;;;2.15;1.05;;;;;;;;;;5098131;28;20024;-90
2021/06/10 02:06:21;;;;;;;2.78;1.13;;;;;;;;;;5098434;28;20047;-90
2021/06/10 02:08:48;;;;;;;1.92;1.00;;;;;;;;;;5097792;28;20433;-87
2021/06/10 02:11:15;;;;;;;2.35;1.05;;;;;;;;;;5098149;28;20028;-89
2021/06/10 02:13:42;;;;;;;3.70;0.90;;;;;;;;;;5115334;28;20020;-91
2021/06/10 02:16:09;;;;;;;1.67;0.98;;;;;;;;;;5097691;28;20455;-88
2021/06/10 02:18:36;;;;;;;1.67;0.70;;;;;;;;;;5097468;28;20028;-90
2021/06/10 02:21:04;;;;;;;2.42;0.95;;;;;;;;;;5097492;28;20032;-88
2021/06/10 02:23:30;;;;;;;6.20;1.33;;;;;;;;;;5097203;28;20103;-92
2021/06/10 02:25:56;;;;;;;4.38;0.70;;;;;;;;;;5098022;28;20517;-90
2021/06/10 02:28:22;;;;;;;5.07;0.98;;;;;;;;;;5098263;28;20023;-90
2021/06/10 02:30:49;;;;;;;2.10;0.80;;;;;;;;;;5097866;28;20107;-92
2021/06/10 02:33:18;;;;;;;4.63;1.02;;;;;;;;;;5116455;28;20062;-90
2021/06/10 02:35:45;;;;;;;3.05;1.00;;;;;;;;;;5103671;28;20076;-92
2021/06/10 02:38:11;;;;;;;3.60;1.00;;;;;;;;;;5102891;28;20023;-92
2021/06/10 02:40:40;;;;;;;2.40;1.10;;;;;;;;;;5101244;28;20050;-93
2021/06/10 02:43:07;;;;;;;1.65;1.00;;;;;;;;;;5101821;28;20040;-93
2021/06/10 02:45:34;;;;;;;1.85;0.90;;;;;;;;;;5102304;28;20020;-91
2021/06/10 02:48:01;;;;;;;3.92;1.20;;;;;;;;;;5102235;28;20027;-91
2021/06/10 02:50:28;;;;;;;3.03;1.10;;;;;;;;;;5101711;28;20027;-91
2021/06/10 02:52:55;;;;;;;2.38;1.05;;;;;;;;;;5120803;28;20461;-90
2021/06/10 02:55:22;;;;;;;1.92;0.90;;;;;;;;;;5102242;28;20035;-92
2021/06/10 02:57:52;;;;;;;1.95;0.98;;;;;;;;;;5101950;28;20028;-90
2021/06/10 03:00:20;;;;;;;4.28;1.08;;;;;;;;;;5101822;28;20004;-90
2021/06/10 03:02:48;;;;;;;3.42;1.38;;;;;;;;;;5101876;28;20525;-90
2021/06/10 03:05:14;;;;;;;1.45;0.90;;;;;;;;;;5101827;28;20111;-92
2021/06/10 03:07:41;;;;;;;1.67;0.93;;;;;;;;;;5119454;28;20047;-91
2021/06/10 03:10:09;;;;;;;2.80;1.00;;;;;;;;;;5101683;28;20026;-91
2021/06/10 03:12:36;;;;;;;3.50;1.30;;;;;;;;;;5101427;28;20028;-91
2021/06/10 03:15:02;;;;;;;2.63;0.98;;;;;;;;;;5101487;28;20055;-91
2021/06/10 03:17:28;;;;;;;2.03;1.10;;;;;;;;;;5101345;28;20507;-91
2021/06/10 03:19:55;;;;;;;1.60;0.88;;;;;;;;;;5101279;28;20110;-91
2021/06/10 03:22:21;;;;;;;1.75;1.05;;;;;;;;;;5100646;28;20114;-92
2021/06/10 03:24:48;;;;;;;4.18;1.30;;;;;;;;;;5101276;28;20028;-93
2021/06/10 03:27:14;;;;;;;5.65;1.17;;;;;;;;;;5102297;28;20032;-91
2021/06/10 03:29:40;;;;;;;2.92;1.13;;;;;;;;;;5101557;28;20016;-92
2021/06/10 03:32:07;;;;;;;3.38;1.17;;;;;;;;;;5119324;28;20027;-93
2021/06/10 03:34:33;;;;;;;2.08;1.08;;;;;;;;;;5119857;28;20069;-93
2021/06/10 03:37:01;;;;;;;4.65;1.10;;;;;;;;;;5118764;28;20050;-89
2021/06/10 03:39:27;;;;;;;4.50;1.30;;;;;;;;;;5101090;28;20028;-93
2021/06/10 03:41:55;;;;;;;4.15;1.00;;;;;;;;;;5100737;28;20169;-92
2021/06/10 03:44:21;;;;;;;3.67;1.02;;;;;;;;;;5100743;28;20495;-91
2021/06/10 03:46:47;;;;;;;2.03;1.20;;;;;;;;;;5101832;28;20015;-92
2021/06/10 03:49:13;;;;;;;2.38;1.20;;;;;;;;;;5100742;28;20118;-88
2021/06/10 03:51:40;;;;;;;1.80;0.90;;;;;;;;;;5099839;28;20028;-89
2021/06/10 03:54:07;;;;;;;2.40;1.10;;;;;;;;;;5119443;28;20063;-88
2021/06/10 03:56:34;;;;;;;2.72;1.23;;;;;;;;;;5120465;28;20098;-91
2021/06/10 03:59:01;;;;;;;3.97;1.13;;;;;;;;;;5100830;28;20035;-91
2021/06/10 04:01:28;;;;;;;2.38;1.10;;;;;;;;;;5118575;28;20108;-89
2021/06/10 04:03:55;;;;;;;3.70;1.23;;;;;;;;;;5100419;28;20031;-90
2021/06/10 04:06:28;;;;;;;3.38;1.00;;;;;;;;;;5099784;28;20028;-89
2021/06/10 04:08:54;;;;;;;;;;;;;;;;;;5100293;28;20023;-90
2021/06/10 04:11:20;;;;;;;6.60;1.08;;;;;;;;;;5101106;28;19904;-91
2021/06/10 04:13:47;;;;;;;4.32;1.08;;;;;;;;;;5101031;28;20061;-90
2021/06/10 04:16:13;;;;;;;2.15;0.88;;;;;;;;;;5099983;28;20112;-89
2021/06/10 04:18:39;;;;;;;3.53;0.90;;;;;;;;;;5100351;28;20038;-89
2021/06/10 04:21:05;;;;;;;2.63;1.02;;;;;;;;;;5100176;28;20095;-88
2021/06/10 04:23:32;;;;;;;3.55;1.15;;;;;;;;;;5099106;28;20042;-88
2021/06/10 04:25:58;;;;;;;1.58;1.05;;;;;;;;;;5099895;28;20016;-91
2021/06/10 04:28:24;;;;;;;2.25;0.95;;;;;;;;;;5100342;28;20024;-89
2021/06/10 04:30:50;;;;;;;4.40;1.27;;;;;;;;;;5099996;28;20016;-92
2021/06/10 04:33:17;;;;;;;9.27;1.20;;;;;;;;;;5099736;28;20031;-92
2021/06/10 04:35:43;;;;;;;1.90;1.17;;;;;;;;;;5099785;28;20073;-91
2021/06/10 04:38:10;;;;;;;3.45;1.00;;;;;;;;;;5099229;28;20080;-92
2021/06/10 04:40:36;;;;;;;3.20;0.90;;;;;;;;;;5099599;28;20070;-91
2021/06/10 04:43:03;;;;;;;4.05;1.08;;;;;;;;;;5099857;28;20039;-90
2021/06/10 04:45:29;;;;;;;2.30;0.95;;;;;;;;;;5099669;28;20076;-92
2021/06/10 04:47:55;;;;;;;2.25;0.98;;;;;;;;;;5099682;28;20031;-89
2021/06/10 04:50:22;;;;;;;2.38;0.90;;;;;;;;;;5099696;28;20020;-90
2021/06/10 04:52:48;;;;;;;3.65;1.00;;;;;;;;;;5100827;28;20027;-91
2021/06/10 04:55:14;;;;;;;2.78;0.93;;;;;;;;;;5099721;28;20490;-91
2021/06/10 04:57:41;;;;;;;3.00;1.10;;;;;;;;;;5098292;28;20031;-91
2021/06/10 05:00:07;;;;;;;2.50;0.98;;;;;;;;;;5099301;28;20076;-91
2021/06/10 05:02:35;;;;;;;1.52;0.68;;;;;;;;;;5099045;28;20041;-93
2021/06/10 05:05:02;;;;;;;3.45;1.15;;;;;;;;;;5117943;28;20079;-91
2021/06/10 05:07:28;;;;;;;2.92;1.10;;;;;;;;;;5098202;28;20035;-92
2021/06/10 05:09:54;;;;;;;3.58;0.90;;;;;;;;;;5095919;27;20444;-90
2021/06/10 05:12:20;;;;;;;4.72;1.00;;;;;;;;;;5087019;28;20028;-92
2021/06/10 05:14:46;;;;;;;4.68;1.13;;;;;;;;;;5078245;28;20020;-91
2021/06/10 05:17:12;;;;;;;2.15;0.95;;;;;;;;;;5078092;28;20039;-92
2021/06/10 05:19:38;;;;;;;10.75;1.05;;;;;;;;;;5078840;28;20472;-92
2021/06/10 05:22:04;;;;;;;5.60;1.15;;;;;;;;;;5077565;28;20039;-89
2021/06/10 05:24:30;;;;;;;1.98;0.90;;;;;;;;;;5078514;28;20024;-91
2021/06/10 05:26:57;;;;;;;1.85;0.90;;;;;;;;;;5078452;28;20028;-85
2021/06/10 05:29:23;;;;;;;3.55;0.80;;;;;;;;;;5076466;28;20020;-84
2021/06/10 05:31:49;;;;;;;1.73;0.90;;;;;;;;;;5095068;28;20038;-84
2021/06/10 05:34:16;;;;;;;2.05;0.90;;;;;;;;;;5077619;28;20111;-84
2021/06/10 05:36:42;;;;;;;4.07;0.75;;;;;;;;;;5075977;28;20028;-84
2021/06/10 05:39:08;;;;;;;9.02;1.15;;;;;;;;;;5076661;28;20043;-91
2021/06/10 05:41:34;;;;;;;2.28;0.77;;;;;;;;;;5077252;28;20055;-90
2021/06/10 05:44:02;;;;;;;3.30;1.27;;;;;;;;;;5060357;28;20052;-87
2021/06/10 05:46:28;;;;;;;2.17;0.85;;;;;;;;;;5094659;28;20036;-90
2021/06/10 05:48:54;;;;;;;1.70;0.77;;;;;;;;;;5094940;28;20107;-88
2021/06/10 05:51:21;;;;;;;7.10;1.42;;;;;;;;;;5076263;28;20024;-86
2021/06/10 05:53:47;;;;;;;2.75;0.90;;;;;;;;;;5076592;28;20032;-90
2021/06/10 05:56:13;;;;;;;1.35;0.80;;;;;;;;;;5094065;28;20538;-89
2021/06/10 05:58:39;;;;;;;5.55;1.23;;;;;;;;;;5094505;28;20047;-89
2021/06/10 06:01:05;;;;;;;3.35;0.90;;;;;;;;;;5076016;28;20020;-89
2021/06/10 06:03:32;;;;;;;4.63;0.80;;;;;;;;;;5093908;28;20081;-89
2021/06/10 06:05:58;;;;;;;5.05;0.90;;;;;;;;;;5101580;27;20024;-87
2021/06/10 06:08:25;;;;;;;2.60;0.80;;;;;;;;;;5116516;27;20070;-88
2021/06/10 06:10:52;;;;;;;7.30;1.05;;;;;;;;;;5116192;27;20382;-88
2021/06/10 06:13:24;;;;;;;2.45;0.80;;;;;;;;;;5116987;28;20115;-89
2021/06/10 06:15:51;;;;;;;;;;;;;;;;;;5116533;27;20096;-88
2021/06/10 06:18:17;;;;;;;1.83;1.00;;;;;;;;;;5134800;27;20313;-88
2021/06/10 06:20:44;;;;;;;2.83;1.00;;;;;;;;;;5116523;27;20035;-88
2021/06/10 06:23:10;;;;;;;1.67;0.65;;;;;;;;;;5116064;27;20373;-88
2021/06/10 06:25:36;;;;;;;3.15;0.90;;;;;;;;;;5118130;28;20421;-88
2021/06/10 06:28:02;;;;;;;10.40;0.93;;;;;;;;;;5116390;27;20030;-88
2021/06/10 06:30:29;;;;;;;2.58;0.85;;;;;;;;;;5116143;28;20164;-89
2021/06/10 06:32:55;;;;;;;1.80;0.80;;;;;;;;;;5116460;28;20056;-89
2021/06/10 06:35:21;;;;;;;1.38;0.80;;;;;;;;;;5134639;28;20024;-87
2021/06/10 06:37:49;;;;;;;3.03;0.95;;;;;;;;;;5134364;28;20034;-88
2021/06/10 06:40:15;;;;;;;2.42;0.77;;;;;;;;;;5113073;28;20036;-89
2021/06/10 06:42:42;;;;;;;1.30;0.75;;;;;;;;;;5114242;28;20051;-89
2021/06/10 06:45:09;;;;;;;4.10;0.88;;;;;;;;;;5095919;28;20020;-89
2021/06/10 06:47:35;;;;;;;6.03;1.08;;;;;;;;;;5114039;28;20055;-89
2021/06/10 06:50:01;;;;;;;3.15;0.90;;;;;;;;;;5115519;28;20035;-87
2021/06/10 06:52:28;;;;;;;3.78;0.80;;;;;;;;;;5095754;28;20031;-88
2021/06/10 06:54:54;;;;;;;1.35;0.85;;;;;;;;;;5114330;28;20024;-88
2021/06/10 06:57:20;;;;;;;6.45;1.00;;;;;;;;;;5096234;28;20036;-88
2021/06/10 06:59:46;;;;;;;1.20;0.70;;;;;;;;;;5095292;28;20027;-89
2021/06/10 07:02:12;;;;;;;1.30;0.82;;;;;;;;;;5095509;28;20077;-86
2021/06/10 07:04:38;;;;;;;2.45;0.80;;;;;;;;;;5112117;28;20093;-89
2021/06/10 07:07:06;;;;;;;3.95;0.93;;;;;;;;;;5075235;28;20489;-87
2021/06/10 07:09:33;;;;;;;1.70;0.80;;;;;;;;;;5076784;28;20024;-91
2021/06/10 07:11:59;;;;;;;1.70;0.63;;;;;;;;;;5075697;28;20028;-83
2021/06/10 07:14:25;;;;;;;1.63;0.70;;;;;;;;;;5074760;28;20016;-87
2021/06/10 07:16:52;;;;;;;4.15;0.90;;;;;;;;;;5074979;28;20024;-83
2021/06/10 07:19:18;;;;;;;1.52;0.70;;;;;;;;;;5093881;28;20345;-84
2021/06/10 07:21:44;;;;;;;6.55;0.90;;;;;;;;;;5078548;28;20534;-85
2021/06/10 07:24:10;;;;;;;5.55;0.85;;;;;;;;;;5078908;28;20024;-89
2021/06/10 07:26:36;;;;;;;1.75;0.82;;;;;;;;;;5097665;28;20457;-83
2021/06/10 07:29:02;;;;;;;1.50;0.68;;;;;;;;;;5096795;28;20107;-80
2021/06/10 07:31:28;;;;;;;1.65;0.73;;;;;;;;;;5096795;28;20097;-83
2021/06/10 07:33:55;;;;;;;1.33;0.60;;;;;;;;;;5096849;28;20021;-82
2021/06/10 07:36:22;;;;;;;9.95;0.95;;;;;;;;;;5096631;28;20115;-85
2021/06/10 07:38:48;;;;;;;2.60;0.75;;;;;;;;;;5078471;28;20024;-81
2021/06/10 07:41:14;;;;;;;2.50;0.80;;;;;;;;;;5107618;28;20092;-80
2021/06/10 07:43:41;;;;;;;1.30;0.70;;;;;;;;;;5117247;28;20377;-87
2021/06/10 07:46:07;;;;;;;1.40;0.65;;;;;;;;;;5117361;28;20038;-80
2021/06/10 07:48:33;;;;;;;3.67;0.93;;;;;;;;;;5116913;28;20020;-81
2021/06/10 07:50:59;;;;;;;1.52;0.68;;;;;;;;;;5098448;28;20031;-81
2021/06/10 07:53:25;;;;;;;6.03;0.80;;;;;;;;;;5117213;28;20099;-81
2021/06/10 07:55:54;;;;;;;2.75;0.90;;;;;;;;;;5116710;28;20476;-84
2021/06/10 07:58:21;;;;;;;3.88;1.00;;;;;;;;;;5116838;28;20023;-84
2021/06/10 08:00:47;;;;;;;1.88;0.93;;;;;;;;;;5116709;28;20437;-88
2021/06/10 08:03:13;;;;;;;2.25;0.73;;;;;;;;;;5116833;28;20039;-81
2021/06/10 08:05:40;;;;;;;1.80;0.70;;;;;;;;;;5127628;27;20027;-84
2021/06/10 08:08:06;;;;;;;1.60;0.90;;;;;;;;;;5137467;27;20110;-88
2021/06/10 08:10:33;;;;;;;2.92;1.00;;;;;;;;;;5137589;27;20016;-81
2021/06/10 08:12:59;;;;;;;7.50;0.80;;;;;;;;;;5118346;27;20029;-80
2021/06/10 08:15:25;;;;;;;2.60;0.85;;;;;;;;;;5137141;27;20468;-82
2021/06/10 08:17:51;;;;;;;2.00;0.80;;;;;;;;;;5137111;27;20391;-88
2021/06/10 08:20:18;;;;;;;2.03;0.73;;;;;;;;;;5137762;27;20415;-86
2021/06/10 08:22:45;;;;;;;1.33;0.70;;;;;;;;;;5118181;27;20038;-88
2021/06/10 08:25:11;;;;;;;3.33;0.77;;;;;;;;;;5118375;27;20383;-85
2021/06/10 08:27:37;;;;;;;2.38;1.10;;;;;;;;;;5118497;27;20050;-86
2021/06/10 08:30:08;;;;;;;3.13;1.17;;;;;;;;;;5118627;27;20387;-87
2021/06/10 08:32:34;;;;;;;2.78;0.90;;;;;;;;;;5102414;28;20024;-82
2021/06/10 08:35:00;;;;;;;3.63;1.13;;;;;;;;;;5107628;28;20085;-87
2021/06/10 08:37:26;;;;;;;2.63;0.98;;;;;;;;;;5097493;28;20067;-82
2021/06/10 08:39:52;;;;;;;2.38;0.90;;;;;;;;;;5092591;28;20059;-86
2021/06/10 08:42:19;;;;;;;1.98;0.82;;;;;;;;;;5104365;27;20044;-85
2021/06/10 08:44:46;;;;;;;7.97;0.93;;;;;;;;;;5097828;28;20100;-88
2021/06/10 08:47:13;;;;;;;5.03;1.00;;;;;;;;;;5098226;28;20024;-82
2021/06/10 08:49:44;;;;;;;7.35;1.20;;;;;;;;;;5116212;28;20023;-84
2021/06/10 08:52:12;;;;;;;1.65;0.80;;;;;;;;;;5098436;28;20028;-87
2021/06/10 08:54:38;;;;;;;1.45;0.82;;;;;;;;;;5115480;28;20024;-88
2021/06/10 08:57:04;;;;;;;1.75;0.90;;;;;;;;;;5097838;28;20027;-90
2021/06/10 08:59:31;;;;;;;2.15;0.80;;;;;;;;;;5098545;28;20070;-90
2021/06/10 09:01:57;;;;;;;2.10;0.93;;;;;;;;;;5098023;28;20036;-89
2021/06/10 09:04:23;;;;;;;1.77;0.70;;;;;;;;;;5115791;28;20019;-87
2021/06/10 09:06:54;;;;;;;3.47;0.80;;;;;;;;;;5115583;28;20049;-86
2021/06/10 09:09:21;;;;;;;11.40;0.93;;;;;;;;;;5115343;28;20048;-85
2021/06/10 09:11:48;;;;;;;1.20;0.70;;;;;;;;;;5115533;28;20265;-87
2021/06/10 09:14:14;;;;;;;1.30;0.60;;;;;;;;;;5115736;28;20047;-82
2021/06/10 09:16:43;;;;;;;1.20;0.40;;;;;;;;;;5097068;28;20044;-87
2021/06/10 09:19:16;;;;;;;6.47;0.70;;;;;;;;;;5097094;28;20026;-83
2021/06/10 09:21:43;;;;;;;1.40;0.60;;;;;;;;;;5096680;28;20392;-82
2021/06/10 09:24:22;;;;;;;1.42;0.60;;;;;;;;;;5096565;28;20023;-83
2021/06/10 09:27:03;;;;;;;0.80;0.40;;;;;;;;;;5097178;28;20030;-87
2021/06/10 09:29:49;;;;;;;2.07;0.60;;;;;;;;;;5096581;28;20051;-83
2021/06/10 09:32:17;;;;;;;4.00;0.60;;;;;;;;;;5096332;28;20456;-84
2021/06/10 09:34:57;;;;;;;1.83;0.70;;;;;;;;;;5114747;28;20020;-82
2021/06/10 09:37:28;;;;;;;2.92;0.70;;;;;;;;;;5094840;28;20028;-82
2021/06/10 09:39:55;;;;;;;3.63;0.60;;;;;;;;;;5094280;28;20482;-84
2021/06/10 09:42:31;;;;;;;1.63;0.75;;;;;;;;;;5093665;28;20398;-82
2021/06/10 09:45:01;;;;;;;1.45;0.60;;;;;;;;;;5094823;28;20099;-87
2021/06/10 09:47:29;;;;;;;2.53;0.80;;;;;;;;;;5076095;28;20020;-82
2021/06/10 09:49:55;;;;;;;3.95;0.60;;;;;;;;;;5076020;28;20029;-82
2021/06/10 09:52:22;;;;;;;1.42;0.68;;;;;;;;;;5075726;28;20430;-83
2021/06/10 09:54:55;;;;;;;4.43;0.63;;;;;;;;;;5093907;28;20047;-81
2021/06/10 09:57:21;;;;;;;1.83;0.70;;;;;;;;;;5094197;28;20117;-82
2021/06/10 09:59:52;;;;;;;3.35;0.90;;;;;;;;;;5075678;28;20396;-79
2021/06/10 10:02:18;;;;;;;4.93;0.80;;;;;;;;;;5075642;28;20032;-84
2021/06/10 10:04:56;;;;;;;2.15;0.60;;;;;;;;;;5075881;28;20028;-88
2021/06/10 10:07:25;;;;;;;0.90;0.47;;;;;;;;;;5075745;28;20016;-84
2021/06/10 10:09:51;;;;;;;1.08;0.60;;;;;;;;;;5076127;28;20430;-88
2021/06/10 10:12:18;;;;;;;1.20;0.60;;;;;;;;;;5093881;28;20020;-86
2021/06/10 10:14:45;;;;;;;2.40;0.80;;;;;;;;;;5076489;28;20118;-88
2021/06/10 10:17:11;;;;;;;1.35;0.68;;;;;;;;;;5094067;28;20016;-85
2021/06/10 10:19:37;;;;;;;2.10;0.80;;;;;;;;;;5075665;28;20028;-82
2021/06/10 10:22:03;;;;;;;2.05;0.60;;;;;;;;;;5075449;28;20082;-80
2021/06/10 10:24:30;;;;;;;3.10;0.60;;;;;;;;;;5075564;28;20119;-81
2021/06/10 10:26:56;;;;;;;1.58;0.80;;;;;;;;;;5075253;28;20028;-79
2021/06/10 10:29:22;;;;;;;0.70;0.40;;;;;;;;;;5075391;28;20024;-82
2021/06/10 10:31:50;;;;;;;3.65;0.40;;;;;;;;;;5075401;28;20491;-85
2021/06/10 10:34:31;;;;;;;0.85;0.45;;;;;;;;;;5075178;28;20024;-81
2021/06/10 10:36:57;;;;;;;1.23;0.68;;;;;;;;;;5110342;28;20114;-80
2021/06/10 10:39:32;;;;;;;2.35;0.75;;;;;;;;;;5116390;28;20075;-82
2021/06/10 10:41:59;;;;;;;2.00;0.70;;;;;;;;;;5115782;28;20075;-80
2021/06/10 10:44:33;;;;;;;7.00;0.50;;;;;;;;;;5116279;28;20437;-79
2021/06/10 10:47:00;;;;;;;1.27;0.47;;;;;;;;;;5116235;28;20020;-82
2021/06/10 10:49:29;;;;;;;1.55;0.73;;;;;;;;;;5116069;28;20023;-80
2021/06/10 10:51:55;;;;;;;5.18;0.80;;;;;;;;;;5116265;28;20053;-80
2021/06/10 10:54:32;;;;;;;1.02;0.60;;;;;;;;;;5117461;27;20494;-81
2021/06/10 10:56:59;;;;;;;1.38;0.68;;;;;;;;;;5119861;27;20083;-80
2021/06/10 10:59:25;;;;;;;1.80;0.60;;;;;;;;;;5119914;27;20019;-79
2021/06/10 11:02:04;;;;;;;2.15;0.65;;;;;;;;;;5119662;27;20480;-83
2021/06/10 11:04:49;;;;;;;1.48;0.60;;;;;;;;;;5119739;27;20030;-79
2021/06/10 11:07:36;;;;;;;1.10;0.50;;;;;;;;;;5119790;27;20100;-80
2021/06/10 11:10:02;;;;;;;3.20;0.70;;;;;;;;;;5102744;27;20031;-80
2021/06/10 11:12:43;;;;;;;1.67;0.60;;;;;;;;;;5119625;27;20019;-80
2021/06/10 11:15:22;;;;;;;2.03;0.75;;;;;;;;;;5119664;27;20026;-81
2021/06/10 11:17:53;;;;;;;1.60;0.63;;;;;;;;;;5119574;27;20126;-82
2021/06/10 11:20:20;;;;;;;1.85;0.68;;;;;;;;;;5119411;27;20483;-81
2021/06/10 11:22:49;;;;;;;2.65;0.80;;;;;;;;;;5119400;27;20062;-88
2021/06/10 11:25:27;;;;;;;1.92;0.57;;;;;;;;;;5119768;27;20019;-80
2021/06/10 11:27:55;;;;;;;6.00;0.90;;;;;;;;;;5119264;27;20114;-79
2021/06/10 11:30:22;;;;;;;0.93;0.43;;;;;;;;;;5119050;27;20110;-80
2021/06/10 11:32:57;;;;;;;0.90;0.50;;;;;;;;;;5119336;27;20023;-81
2021/06/10 11:35:29;;;;;;;1.55;0.60;;;;;;;;;;5114625;28;20030;-78
2021/06/10 11:37:59;;;;;;;4.05;0.80;;;;;;;;;;5098834;28;20055;-80
2021/06/10 11:40:25;;;;;;;3.20;0.80;;;;;;;;;;5098650;28;20556;-79
2021/06/10 11:42:52;;;;;;;1.27;0.57;;;;;;;;;;5098425;28;20042;-80
2021/06/10 11:45:22;;;;;;;1.48;0.60;;;;;;;;;;5117201;28;20028;-79
2021/06/10 11:47:49;;;;;;;3.42;0.65;;;;;;;;;;5116281;28;20471;-80
2021/06/10 11:50:23;;;;;;;2.03;0.90;;;;;;;;;;5116312;28;20494;-81
2021/06/10 11:52:50;;;;;;;2.67;0.70;;;;;;;;;;5098282;28;20031;-80
2021/06/10 11:55:17;;;;;;;1.73;0.70;;;;;;;;;;5098447;28;20081;-79
2021/06/10 11:57:43;;;;;;;1.73;0.85;;;;;;;;;;5106858;27;20403;-84
2021/06/10 12:00:11;;;;;;;1.67;0.70;;;;;;;;;;5136962;27;20064;-79
2021/06/10 12:02:38;;;;;;;2.33;0.60;;;;;;;;;;5118601;27;20034;-81
2021/06/10 12:05:08;;;;;;;2.88;0.70;;;;;;;;;;5118262;27;20064;-80
2021/06/10 12:07:34;;;;;;;2.55;0.77;;;;;;;;;;5118500;27;20028;-79
2021/06/10 12:10:09;;;;;;;1.38;0.57;;;;;;;;;;5137244;27;20480;-85
2021/06/10 12:12:45;;;;;;;4.65;0.75;;;;;;;;;;5118679;27;20022;-85
2021/06/10 12:15:12;;;;;;;5.40;0.98;;;;;;;;;;5118401;27;20027;-79
2021/06/10 12:17:57;;;;;;;1.65;0.80;;;;;;;;;;5118383;27;20023;-80
2021/06/10 12:20:25;;;;;;;1.55;0.90;;;;;;;;;;5118332;27;20023;-79
2021/06/10 12:22:51;;;;;;;1.23;0.70;;;;;;;;;;5136612;27;20027;-84
2021/06/10 12:25:19;;;;;;;8.70;1.67;;;;;;;;;;5118403;27;20027;-81
2021/06/10 12:27:45;;;;;;;2.85;0.65;;;;;;;;;;5118412;27;20024;-84
2021/06/10 12:30:22;;;;;;;7.40;1.50;;;;;;;;;;5136533;27;20051;-82
2021/06/10 12:32:48;;;;;;;4.88;1.75;;;;;;;;;;5118055;27;20475;-81
2021/06/10 12:35:14;;;;;;;2.03;1.00;;;;;;;;;;5114851;28;20381;-81
2021/06/10 12:37:40;;;;;;;2.40;0.70;;;;;;;;;;5097637;28;20430;-83
2021/06/10 12:40:07;;;;;;;1.67;0.70;;;;;;;;;;5115616;28;20019;-80
2021/06/10 12:42:33;;;;;;;2.55;0.73;;;;;;;;;;5097520;28;20084;-82
2021/06/10 12:44:59;;;;;;;5.88;1.00;;;;;;;;;;5115920;28;20076;-81
2021/06/10 12:47:33;;;;;;;2.28;0.73;;;;;;;;;;5097444;28;20035;-81
2021/06/10 12:49:59;;;;;;;7.88;1.20;;;;;;;;;;5097284;28;20016;-83
2021/06/10 12:52:26;;;;;;;5.65;1.30;;;;;;;;;;5097196;28;20031;-81
2021/06/10 12:55:03;;;;;;;2.50;0.98;;;;;;;;;;5097425;28;20030;-79
2021/06/10 12:57:30;;;;;;;4.82;0.90;;;;;;;;;;5097367;28;20039;-81
2021/06/10 12:59:58;;;;;;;2.20;1.08;;;;;;;;;;5097132;28;20036;-82
2021/06/10 13:02:25;;;;;;;1.85;0.77;;;;;;;;;;5115719;28;20080;-82
2021/06/10 13:04:52;;;;;;;1.73;0.80;;;;;;;;;;5115280;28;20028;-84
2021/06/10 13:07:31;;;;;;;1.77;0.98;;;;;;;;;;5096820;28;20027;-81
2021/06/10 13:09:59;;;;;;;2.80;1.00;;;;;;;;;;5115976;28;20444;-85
2021/06/10 13:12:26;;;;;;;1.33;0.60;;;;;;;;;;5096885;28;20030;-79
2021/06/10 13:15:03;;;;;;;1.63;0.73;;;;;;;;;;5115785;28;20103;-89
2021/06/10 13:17:48;;;;;;;1.95;0.93;;;;;;;;;;5114829;28;20070;-79
2021/06/10 13:20:14;;;;;;;1.30;0.60;;;;;;;;;;5115184;28;20029;-84
2021/06/10 13:22:40;;;;;;;3.45;0.80;;;;;;;;;;5114966;28;20084;-83
2021/06/10 13:25:10;;;;;;;2.30;0.63;;;;;;;;;;5115293;28;20438;-80
2021/06/10 13:27:36;;;;;;;5.15;0.88;;;;;;;;;;5096681;28;20027;-86
2021/06/10 13:30:05;;;;;;;5.90;0.75;;;;;;;;;;5096685;28;20054;-79
2021/06/10 13:32:32;;;;;;;1.52;0.60;;;;;;;;;;5115057;28;20016;-80
2021/06/10 13:37:31;;;;;;;1.92;0.63;;;;;;;;;;5135284;27;20100;-82
2021/06/10 13:39:57;;;;;;;1.55;0.70;;;;;;;;;;5116259;27;20034;-79
2021/06/10 13:42:24;;;;;;;1.60;0.73;;;;;;;;;;5114380;28;20035;-80
2021/06/10 13:44:53;;;;;;;1.52;0.75;;;;;;;;;;5096189;28;20020;-78
2021/06/10 13:47:20;;;;;;;1.67;0.80;;;;;;;;;;5114994;28;20042;-85
2021/06/10 13:49:46;;;;;;;1.45;0.60;;;;;;;;;;5114400;28;20024;-88
2021/06/10 13:52:13;;;;;;;1.92;0.70;;;;;;;;;;5114449;28;20038;-87
2021/06/10 13:54:39;;;;;;;1.48;0.60;;;;;;;;;;5114806;28;20451;-80
2021/06/10 13:57:06;;;;;;;1.52;0.70;;;;;;;;;;5096141;28;20024;-87
2021/06/10 13:59:32;;;;;;;1.52;0.70;;;;;;;;;;5096061;28;20023;-87
2021/06/10 14:01:58;;;;;;;2.22;0.80;;;;;;;;;;5114198;28;20097;-87
2021/06/10 14:04:24;;;;;;;1.10;0.65;;;;;;;;;;5095991;28;20031;-80
2021/06/10 14:06:50;;;;;;;7.97;0.80;;;;;;;;;;5114834;28;20388;-84
2021/06/10 14:09:17;;;;;;;2.55;0.60;;;;;;;;;;5096458;28;20396;-81
2021/06/10 14:11:43;;;;;;;3.15;0.82;;;;;;;;;;5096113;28;20506;-87
2021/06/10 14:14:09;;;;;;;4.05;0.60;;;;;;;;;;5114212;28;20023;-86
2021/06/10 14:16:37;;;;;;;1.30;0.70;;;;;;;;;;5095942;28;20476;-81
2021/06/10 14:19:05;;;;;;;2.63;0.60;;;;;;;;;;5114126;28;20111;-86
2021/06/10 14:21:31;;;;;;;0.98;0.52;;;;;;;;;;5095658;28;20389;-83
2021/06/10 14:23:58;;;;;;;2.17;0.80;;;;;;;;;;5095709;28;20051;-87
2021/06/10 14:26:25;;;;;;;10.63;0.70;;;;;;;;;;5095672;28;20383;-83
2021/06/10 14:28:52;;;;;;;1.63;0.50;;;;;;;;;;5095844;28;20408;-84
2021/06/10 14:34:08;;;;;;;1.42;0.60;;;;;;;;;;5090783;28;20035;-86
2021/06/10 14:36:36;;;;;;;0.98;0.52;;;;;;;;;;5081282;28;20028;-87
2021/06/10 14:39:02;;;;;;;1.00;0.50;;;;;;;;;;5075430;28;20020;-88
2021/06/10 14:41:28;;;;;;;1.63;0.70;;;;;;;;;;5084808;28;20051;-83
2021/06/10 14:43:54;;;;;;;1.80;0.55;;;;;;;;;;5092089;28;20043;-82
2021/06/10 14:46:21;;;;;;;1.58;0.70;;;;;;;;;;5093959;28;20108;-82
2021/06/10 14:48:48;;;;;;;1.42;0.70;;;;;;;;;;5095296;28;20028;-83
2021/06/10 14:51:14;;;;;;;1.38;0.75;;;;;;;;;;5111775;28;20023;-77
2021/06/10 14:53:40;;;;;;;1.92;0.50;;;;;;;;;;5111609;28;20020;-80